CPX404 Details

Departure: Nashville International Airport (KBNA)
Arrival: Louis Armstrong New Orleans International Airport (KMSY) at N/A
Route: LBY MEI IGB HRTUN CHSNE2
Notes:


Current Weather Information
KBNA 191653Z 10003KT 10SM FEW040 FEW055 33/21 A3008 RMK AO2 SLP177 T03330206
KMSY 191653Z VRB05KT 10SM TS SCT022CB SCT090 BKN150 BKN250 32/25 A3004 RMK AO2 LTG DSNT ALQDS TSB37 SLP174 OCNL LTGICCG SE-SW TS SE-SW MOV SE CB DSNT W-N-E T03220250